sensor_id;sensor_type;location;lat;lon;timestamp;temperature;humidity
7498;DHT22;3790;48.806;9.140;2023-02-28T00:00:10;-2.50;99.90
7498;DHT22;3790;48.806;9.140;2023-02-28T00:05:14;-2.60;99.90
7498;DHT22;3790;48.806;9.140;2023-02-28T00:10:26;-2.70;99.90
7498;DHT22;3790;48.806;9.140;2023-02-28T00:15:27;-2.90;99.90
7498;DHT22;3790;48.806;9.140;2023-02-28T00:20:28;-2.80;99.90
7498;DHT22;3790;48.806;9.140;2023-02-28T00:25:29;-2.90;99.90
7498;DHT22;3790;48.806;9.140;2023-02-28T00:30:30;-3.00;99.90
7498;DHT22;3790;48.806;9.140;2023-02-28T00:35:30;-3.10;99.90
7498;DHT22;3790;48.806;9.140;2023-02-28T00:40:31;-3.20;99.90
7498;DHT22;3790;48.806;9.140;2023-02-28T00:45:32;-3.20;99.90
7498;DHT22;3790;48.806;9.140;2023-02-28T00:50:32;-3.30;99.90
7498;DHT22;3790;48.806;9.140;2023-02-28T00:55:33;-3.30;99.90
7498;DHT22;3790;48.806;9.140;2023-02-28T01:00:33;-3.30;99.90
7498;DHT22;3790;48.806;9.140;2023-02-28T01:05:34;-3.30;99.90
7498;DHT22;3790;48.806;9.140;2023-02-28T01:10:34;-3.20;99.90
7498;DHT22;3790;48.806;9.140;2023-02-28T01:15:36;-3.30;99.90
7498;DHT22;3790;48.806;9.140;2023-02-28T01:20:37;-3.30;99.90
7498;DHT22;3790;48.806;9.140;2023-02-28T01:25:38;-3.30;99.90
7498;DHT22;3790;48.806;9.140;2023-02-28T01:30:39;-3.30;99.90
7498;DHT22;3790;48.806;9.140;2023-02-28T01:35:39;-3.40;99.90
7498;DHT22;3790;48.806;9.140;2023-02-28T01:40:40;-3.40;99.90
7498;DHT22;3790;48.806;9.140;2023-02-28T01:45:40;-3.40;99.90
7498;DHT22;3790;48.806;9.140;2023-02-28T01:50:43;-3.40;99.90
7498;DHT22;3790;48.806;9.140;2023-02-28T01:55:48;-3.30;99.90
7498;DHT22;3790;48.806;9.140;2023-02-28T02:00:51;-3.20;99.90
7498;DHT22;3790;48.806;9.140;2023-02-28T02:05:51;-3.20;99.90
7498;DHT22;3790;48.806;9.140;2023-02-28T02:10:54;-3.10;99.90
7498;DHT22;3790;48.806;9.140;2023-02-28T02:32:14;-3.00;99.90
7498;DHT22;3790;48.806;9.140;2023-02-28T02:37:39;-2.90;99.90
7498;DHT22;3790;48.806;9.140;2023-02-28T02:48:03;-2.70;99.90
7498;DHT22;3790;48.806;9.140;2023-02-28T02:53:07;-2.50;99.90
7498;DHT22;3790;48.806;9.140;2023-02-28T02:58:13;-2.50;99.90
7498;DHT22;3790;48.806;9.140;2023-02-28T03:03:16;-2.50;99.90
7498;DHT22;3790;48.806;9.140;2023-02-28T03:08:20;-2.50;99.90
7498;DHT22;3790;48.806;9.140;2023-02-28T03:13:39;-2.30;99.90
7498;DHT22;3790;48.806;9.140;2023-02-28T03:24:18;-2.20;99.90
7498;DHT22;3790;48.806;9.140;2023-02-28T03:29:27;-2.20;99.90
7498;DHT22;3790;48.806;9.140;2023-02-28T03:34:34;-2.20;99.90
7498;DHT22;3790;48.806;9.140;2023-02-28T03:39:58;-2.10;99.90
7498;DHT22;3790;48.806;9.140;2023-02-28T03:45:08;-2.20;99.90
7498;DHT22;3790;48.806;9.140;2023-02-28T03:50:12;-2.10;99.90
7498;DHT22;3790;48.806;9.140;2023-02-28T03:55:16;-2.10;99.90
7498;DHT22;3790;48.806;9.140;2023-02-28T04:00:21;-2.00;99.90
7498;DHT22;3790;48.806;9.140;2023-02-28T04:05:25;-2.00;99.90
7498;DHT22;3790;48.806;9.140;2023-02-28T04:10:25;-1.90;99.90
7498;DHT22;3790;48.806;9.140;2023-02-28T04:15:28;-1.90;99.90
7498;DHT22;3790;48.806;9.140;2023-02-28T04:20:29;-1.70;99.90
7498;DHT22;3790;48.806;9.140;2023-02-28T04:25:30;-1.70;99.90
7498;DHT22;3790;48.806;9.140;2023-02-28T04:30:30;-1.70;99.90
7498;DHT22;3790;48.806;9.140;2023-02-28T04:35:32;-1.70;99.90
7498;DHT22;3790;48.806;9.140;2023-02-28T04:40:33;-1.60;99.90
7498;DHT22;3790;48.806;9.140;2023-02-28T04:45:34;-1.60;99.90
7498;DHT22;3790;48.806;9.140;2023-02-28T04:50:35;-1.60;99.90
7498;DHT22;3790;48.806;9.140;2023-02-28T04:55:35;-1.50;99.90
7498;DHT22;3790;48.806;9.140;2023-02-28T05:00:36;-1.50;99.90
7498;DHT22;3790;48.806;9.140;2023-02-28T05:05:37;-1.60;99.90
7498;DHT22;3790;48.806;9.140;2023-02-28T05:10:37;-1.50;99.90
7498;DHT22;3790;48.806;9.140;2023-02-28T05:15:38;-1.60;99.90
7498;DHT22;3790;48.806;9.140;2023-02-28T05:20:38;-1.60;99.90
7498;DHT22;3790;48.806;9.140;2023-02-28T05:25:40;-1.60;99.90
7498;DHT22;3790;48.806;9.140;2023-02-28T05:30:40;-1.60;99.90
7498;DHT22;3790;48.806;9.140;2023-02-28T05:35:42;-1.50;99.90
7498;DHT22;3790;48.806;9.140;2023-02-28T05:40:45;-1.50;99.90
7498;DHT22;3790;48.806;9.140;2023-02-28T05:45:46;-1.50;99.90
7498;DHT22;3790;48.806;9.140;2023-02-28T05:50:46;-1.50;99.90
7498;DHT22;3790;48.806;9.140;2023-02-28T05:55:47;-1.50;99.90
7498;DHT22;3790;48.806;9.140;2023-02-28T06:00:48;-1.50;99.90
7498;DHT22;3790;48.806;9.140;2023-02-28T06:05:48;-1.40;99.90
7498;DHT22;3790;48.806;9.140;2023-02-28T06:10:49;-1.50;99.90
7498;DHT22;3790;48.806;9.140;2023-02-28T06:15:49;-1.40;99.90
7498;DHT22;3790;48.806;9.140;2023-02-28T06:20:53;-1.40;99.90
7498;DHT22;3790;48.806;9.140;2023-02-28T06:25:54;-1.40;99.90
7498;DHT22;3790;48.806;9.140;2023-02-28T06:30:58;-1.40;99.90
7498;DHT22;3790;48.806;9.140;2023-02-28T06:35:58;-1.30;99.90
7498;DHT22;3790;48.806;9.140;2023-02-28T06:41:00;-1.30;99.90
7498;DHT22;3790;48.806;9.140;2023-02-28T06:46:03;-1.20;99.90
7498;DHT22;3790;48.806;9.140;2023-02-28T06:51:05;-1.10;99.90
7498;DHT22;3790;48.806;9.140;2023-02-28T06:56:08;-1.10;99.90
7498;DHT22;3790;48.806;9.140;2023-02-28T07:01:09;-1.10;99.90
7498;DHT22;3790;48.806;9.140;2023-02-28T07:06:10;-1.10;99.90
7498;DHT22;3790;48.806;9.140;2023-02-28T07:11:10;-1.10;99.90
7498;DHT22;3790;48.806;9.140;2023-02-28T07:16:11;-0.90;99.90
7498;DHT22;3790;48.806;9.140;2023-02-28T07:21:12;-0.90;99.90
7498;DHT22;3790;48.806;9.140;2023-02-28T07:26:16;-0.80;99.90
7498;DHT22;3790;48.806;9.140;2023-02-28T07:31:17;-0.80;99.90
7498;DHT22;3790;48.806;9.140;2023-02-28T07:36:18;-0.70;99.90
7498;DHT22;3790;48.806;9.140;2023-02-28T07:41:22;-0.70;99.90
7498;DHT22;3790;48.806;9.140;2023-02-28T07:46:26;-0.70;99.90
7498;DHT22;3790;48.806;9.140;2023-02-28T07:51:26;-0.60;99.90
7498;DHT22;3790;48.806;9.140;2023-02-28T07:56:27;-0.50;99.90
7498;DHT22;3790;48.806;9.140;2023-02-28T08:01:27;-0.50;99.90
7498;DHT22;3790;48.806;9.140;2023-02-28T08:06:28;-0.30;99.90
7498;DHT22;3790;48.806;9.140;2023-02-28T08:11:28;-0.20;99.90
7498;DHT22;3790;48.806;9.140;2023-02-28T08:16:29;-0.20;99.90
7498;DHT22;3790;48.806;9.140;2023-02-28T08:21:29;-0.20;99.90
7498;DHT22;3790;48.806;9.140;2023-02-28T08:26:30;-0.10;99.90
7498;DHT22;3790;48.806;9.140;2023-02-28T08:31:30;0.10;99.90
7498;DHT22;3790;48.806;9.140;2023-02-28T08:36:31;0.00;99.90
7498;DHT22;3790;48.806;9.140;2023-02-28T08:41:32;0.00;99.90
7498;DHT22;3790;48.806;9.140;2023-02-28T08:46:33;0.10;99.90
7498;DHT22;3790;48.806;9.140;2023-02-28T08:51:34;0.30;99.90
7498;DHT22;3790;48.806;9.140;2023-02-28T08:56:34;0.40;99.90
7498;DHT22;3790;48.806;9.140;2023-02-28T09:01:36;0.50;99.90
7498;DHT22;3790;48.806;9.140;2023-02-28T09:06:37;0.60;99.90
7498;DHT22;3790;48.806;9.140;2023-02-28T09:11:38;0.90;99.90
7498;DHT22;3790;48.806;9.140;2023-02-28T09:16:38;1.00;99.90
7498;DHT22;3790;48.806;9.140;2023-02-28T09:21:39;1.20;99.90
7498;DHT22;3790;48.806;9.140;2023-02-28T09:26:40;1.30;99.90
7498;DHT22;3790;48.806;9.140;2023-02-28T09:31:40;1.40;99.90
7498;DHT22;3790;48.806;9.140;2023-02-28T09:36:40;1.60;99.90
7498;DHT22;3790;48.806;9.140;2023-02-28T09:41:45;1.60;99.90
7498;DHT22;3790;48.806;9.140;2023-02-28T09:46:55;2.00;99.90
7498;DHT22;3790;48.806;9.140;2023-02-28T09:52:12;2.20;99.90
7498;DHT22;3790;48.806;9.140;2023-02-28T10:07:57;2.60;99.90
7498;DHT22;3790;48.806;9.140;2023-02-28T10:13:05;2.70;99.90
7498;DHT22;3790;48.806;9.140;2023-02-28T10:18:14;2.50;99.90
7498;DHT22;3790;48.806;9.140;2023-02-28T10:23:32;3.00;99.90
7498;DHT22;3790;48.806;9.140;2023-02-28T10:28:34;3.10;99.90
7498;DHT22;3790;48.806;9.140;2023-02-28T10:33:35;3.50;99.90
7498;DHT22;3790;48.806;9.140;2023-02-28T10:38:38;4.00;99.90
7498;DHT22;3790;48.806;9.140;2023-02-28T10:43:40;4.00;99.90
7498;DHT22;3790;48.806;9.140;2023-02-28T10:48:42;4.10;99.90
7498;DHT22;3790;48.806;9.140;2023-02-28T10:53:50;4.40;99.90
7498;DHT22;3790;48.806;9.140;2023-02-28T10:58:55;4.40;99.90
7498;DHT22;3790;48.806;9.140;2023-02-28T11:03:56;4.40;99.90
7498;DHT22;3790;48.806;9.140;2023-02-28T11:14:46;5.50;99.90
7498;DHT22;3790;48.806;9.140;2023-02-28T11:19:52;5.40;99.90
7498;DHT22;3790;48.806;9.140;2023-02-28T11:24:56;5.60;99.90
7498;DHT22;3790;48.806;9.140;2023-02-28T11:29:58;5.70;99.90
7498;DHT22;3790;48.806;9.140;2023-02-28T11:40:21;5.80;99.90
7498;DHT22;3790;48.806;9.140;2023-02-28T11:45:43;5.50;99.90
7498;DHT22;3790;48.806;9.140;2023-02-28T11:56:29;4.90;99.90
7498;DHT22;3790;48.806;9.140;2023-02-28T12:17:48;13.10;91.40
7498;DHT22;3790;48.806;9.140;2023-02-28T12:23:21;13.60;86.10
7498;DHT22;3790;48.806;9.140;2023-02-28T12:28:31;14.10;82.60
7498;DHT22;3790;48.806;9.140;2023-02-28T12:33:37;15.00;79.30
7498;DHT22;3790;48.806;9.140;2023-02-28T12:38:44;13.00;77.80
7498;DHT22;3790;48.806;9.140;2023-02-28T12:43:50;11.30;82.10
7498;DHT22;3790;48.806;9.140;2023-02-28T12:48:56;11.70;84.70
7498;DHT22;3790;48.806;9.140;2023-02-28T12:54:19;13.10;80.50
7498;DHT22;3790;48.806;9.140;2023-02-28T13:10:15;7.30;90.10
7498;DHT22;3790;48.806;9.140;2023-02-28T13:15:25;6.40;92.70
7498;DHT22;3790;48.806;9.140;2023-02-28T13:20:36;5.90;94.10
7498;DHT22;3790;48.806;9.140;2023-02-28T14:02:48;13.50;87.60
7498;DHT22;3790;48.806;9.140;2023-02-28T14:07:54;13.10;83.40
7498;DHT22;3790;48.806;9.140;2023-02-28T14:13:38;14.50;80.30
7498;DHT22;3790;48.806;9.140;2023-02-28T14:18:56;16.10;74.80
7498;DHT22;3790;48.806;9.140;2023-02-28T14:29:43;15.30;70.50
7498;DHT22;3790;48.806;9.140;2023-02-28T14:35:02;16.50;68.90
7498;DHT22;3790;48.806;9.140;2023-02-28T14:40:15;17.20;66.30
7498;DHT22;3790;48.806;9.140;2023-02-28T14:45:20;14.80;67.40
7498;DHT22;3790;48.806;9.140;2023-02-28T14:50:23;14.50;68.40
7498;DHT22;3790;48.806;9.140;2023-02-28T14:55:28;11.70;70.00
7498;DHT22;3790;48.806;9.140;2023-02-28T15:00:32;9.90;76.20
7498;DHT22;3790;48.806;9.140;2023-02-28T15:05:34;8.40;80.30
7498;DHT22;3790;48.806;9.140;2023-02-28T15:10:35;7.40;85.70
7498;DHT22;3790;48.806;9.140;2023-02-28T15:15:46;6.90;89.90
7498;DHT22;3790;48.806;9.140;2023-02-28T15:20:52;7.70;90.20
7498;DHT22;3790;48.806;9.140;2023-02-28T15:25:55;7.40;90.60
7498;DHT22;3790;48.806;9.140;2023-02-28T15:30:59;6.90;91.20
7498;DHT22;3790;48.806;9.140;2023-02-28T15:41:35;6.60;92.60
7498;DHT22;3790;48.806;9.140;2023-02-28T15:46:38;6.60;93.30
7498;DHT22;3790;48.806;9.140;2023-02-28T15:51:39;6.40;93.80
7498;DHT22;3790;48.806;9.140;2023-02-28T15:56:45;7.20;93.70
7498;DHT22;3790;48.806;9.140;2023-02-28T16:01:46;6.60;93.60
7498;DHT22;3790;48.806;9.140;2023-02-28T16:12:01;7.20;94.50
7498;DHT22;3790;48.806;9.140;2023-02-28T16:17:05;6.40;94.10
7498;DHT22;3790;48.806;9.140;2023-02-28T16:22:09;5.60;95.40
7498;DHT22;3790;48.806;9.140;2023-02-28T16:27:32;5.00;96.70
7498;DHT22;3790;48.806;9.140;2023-02-28T16:32:36;4.60;98.20
7498;DHT22;3790;48.806;9.140;2023-02-28T16:37:36;4.30;99.40
7498;DHT22;3790;48.806;9.140;2023-02-28T16:42:37;4.10;99.90
7498;DHT22;3790;48.806;9.140;2023-02-28T16:47:38;3.90;99.90
7498;DHT22;3790;48.806;9.140;2023-02-28T16:52:39;3.70;99.90
7498;DHT22;3790;48.806;9.140;2023-02-28T16:57:39;3.60;99.90
7498;DHT22;3790;48.806;9.140;2023-02-28T17:02:40;3.30;99.90
7498;DHT22;3790;48.806;9.140;2023-02-28T17:07:42;3.10;99.90
7498;DHT22;3790;48.806;9.140;2023-02-28T17:12:43;2.90;99.90
7498;DHT22;3790;48.806;9.140;2023-02-28T17:17:44;2.70;99.90
7498;DHT22;3790;48.806;9.140;2023-02-28T17:22:45;2.60;99.90
7498;DHT22;3790;48.806;9.140;2023-02-28T17:27:45;2.50;99.90
7498;DHT22;3790;48.806;9.140;2023-02-28T17:32:46;2.40;99.90
7498;DHT22;3790;48.806;9.140;2023-02-28T17:37:47;2.20;99.90
7498;DHT22;3790;48.806;9.140;2023-02-28T17:42:48;2.20;99.90
7498;DHT22;3790;48.806;9.140;2023-02-28T17:47:49;2.00;99.90
7498;DHT22;3790;48.806;9.140;2023-02-28T17:52:50;1.80;99.90
7498;DHT22;3790;48.806;9.140;2023-02-28T17:57:51;1.60;99.90
7498;DHT22;3790;48.806;9.140;2023-02-28T18:02:51;1.50;99.90
7498;DHT22;3790;48.806;9.140;2023-02-28T18:07:52;1.30;99.90
7498;DHT22;3790;48.806;9.140;2023-02-28T18:12:53;1.20;99.90
7498;DHT22;3790;48.806;9.140;2023-02-28T18:17:54;1.20;99.90
7498;DHT22;3790;48.806;9.140;2023-02-28T18:22:54;1.10;99.90
7498;DHT22;3790;48.806;9.140;2023-02-28T18:27:55;0.90;99.90
7498;DHT22;3790;48.806;9.140;2023-02-28T18:32:59;0.90;99.90
7498;DHT22;3790;48.806;9.140;2023-02-28T18:38:06;1.00;99.90
7498;DHT22;3790;48.806;9.140;2023-02-28T18:43:07;1.00;99.90
7498;DHT22;3790;48.806;9.140;2023-02-28T18:48:08;0.80;99.90
7498;DHT22;3790;48.806;9.140;2023-02-28T18:53:08;0.70;99.90
7498;DHT22;3790;48.806;9.140;2023-02-28T18:58:10;0.50;99.90
7498;DHT22;3790;48.806;9.140;2023-02-28T19:03:11;0.40;99.90
7498;DHT22;3790;48.806;9.140;2023-02-28T19:08:12;0.30;99.90
7498;DHT22;3790;48.806;9.140;2023-02-28T19:13:12;0.20;99.90
7498;DHT22;3790;48.806;9.140;2023-02-28T19:18:16;0.20;99.90
7498;DHT22;3790;48.806;9.140;2023-02-28T19:23:16;0.20;99.90
7498;DHT22;3790;48.806;9.140;2023-02-28T19:28:18;0.00;99.90
7498;DHT22;3790;48.806;9.140;2023-02-28T19:33:19;-0.10;99.90
7498;DHT22;3790;48.806;9.140;2023-02-28T19:38:20;-0.10;99.90
7498;DHT22;3790;48.806;9.140;2023-02-28T19:43:20;-0.10;99.90
7498;DHT22;3790;48.806;9.140;2023-02-28T19:48:21;-0.10;99.90
7498;DHT22;3790;48.806;9.140;2023-02-28T19:53:25;-0.10;99.90
7498;DHT22;3790;48.806;9.140;2023-02-28T19:58:26;-0.20;99.90
7498;DHT22;3790;48.806;9.140;2023-02-28T20:03:27;-0.20;99.90
7498;DHT22;3790;48.806;9.140;2023-02-28T20:08:28;-0.20;99.90
7498;DHT22;3790;48.806;9.140;2023-02-28T20:13:28;-0.20;99.90
7498;DHT22;3790;48.806;9.140;2023-02-28T20:18:29;-0.20;99.90
7498;DHT22;3790;48.806;9.140;2023-02-28T20:23:30;-0.30;99.90
7498;DHT22;3790;48.806;9.140;2023-02-28T20:28:31;-0.40;99.90
7498;DHT22;3790;48.806;9.140;2023-02-28T20:33:31;-0.50;99.90
7498;DHT22;3790;48.806;9.140;2023-02-28T20:38:32;-0.50;99.90
7498;DHT22;3790;48.806;9.140;2023-02-28T20:43:32;-0.50;99.90
7498;DHT22;3790;48.806;9.140;2023-02-28T20:48:34;-0.70;99.90
7498;DHT22;3790;48.806;9.140;2023-02-28T20:53:37;-0.70;99.90
7498;DHT22;3790;48.806;9.140;2023-02-28T20:58:38;-0.70;99.90
7498;DHT22;3790;48.806;9.140;2023-02-28T21:03:39;-0.80;99.90
7498;DHT22;3790;48.806;9.140;2023-02-28T21:08:40;-0.80;99.90
7498;DHT22;3790;48.806;9.140;2023-02-28T21:13:41;-0.90;99.90
7498;DHT22;3790;48.806;9.140;2023-02-28T21:18:42;-0.80;99.90
7498;DHT22;3790;48.806;9.140;2023-02-28T21:23:44;-0.90;99.90
7498;DHT22;3790;48.806;9.140;2023-02-28T21:28:57;-1.00;99.90
7498;DHT22;3790;48.806;9.140;2023-02-28T21:33:59;-1.10;99.90
7498;DHT22;3790;48.806;9.140;2023-02-28T21:39:17;-1.10;99.90
7498;DHT22;3790;48.806;9.140;2023-02-28T21:44:18;-1.20;99.90
7498;DHT22;3790;48.806;9.140;2023-02-28T21:49:18;-1.10;99.90
7498;DHT22;3790;48.806;9.140;2023-02-28T21:54:19;-1.20;99.90
7498;DHT22;3790;48.806;9.140;2023-02-28T21:59:20;-1.20;99.90
7498;DHT22;3790;48.806;9.140;2023-02-28T22:04:24;-1.20;99.90
7498;DHT22;3790;48.806;9.140;2023-02-28T22:09:25;-1.20;99.90
7498;DHT22;3790;48.806;9.140;2023-02-28T22:14:26;-1.30;99.90
7498;DHT22;3790;48.806;9.140;2023-02-28T22:19:27;-1.30;99.90
7498;DHT22;3790;48.806;9.140;2023-02-28T22:24:27;-1.50;99.90
7498;DHT22;3790;48.806;9.140;2023-02-28T22:29:28;-1.60;99.90
7498;DHT22;3790;48.806;9.140;2023-02-28T22:34:28;-1.70;99.90
7498;DHT22;3790;48.806;9.140;2023-02-28T22:39:29;-1.80;99.90
7498;DHT22;3790;48.806;9.140;2023-02-28T22:44:29;-1.80;99.90
7498;DHT22;3790;48.806;9.140;2023-02-28T22:49:30;-1.80;99.90
7498;DHT22;3790;48.806;9.140;2023-02-28T22:54:30;-1.70;99.90
7498;DHT22;3790;48.806;9.140;2023-02-28T22:59:31;-1.70;99.90
7498;DHT22;3790;48.806;9.140;2023-02-28T23:04:31;-1.70;99.90
7498;DHT22;3790;48.806;9.140;2023-02-28T23:09:32;-1.60;99.90
7498;DHT22;3790;48.806;9.140;2023-02-28T23:14:33;-1.70;99.90
7498;DHT22;3790;48.806;9.140;2023-02-28T23:19:33;-1.60;99.90
7498;DHT22;3790;48.806;9.140;2023-02-28T23:24:35;-1.60;99.90
7498;DHT22;3790;48.806;9.140;2023-02-28T23:29:36;-1.70;99.90
7498;DHT22;3790;48.806;9.140;2023-02-28T23:34:37;-1.60;99.90
7498;DHT22;3790;48.806;9.140;2023-02-28T23:39:37;-1.70;99.90
7498;DHT22;3790;48.806;9.140;2023-02-28T23:44:38;-1.70;99.90
7498;DHT22;3790;48.806;9.140;2023-02-28T23:49:39;-1.80;99.90
7498;DHT22;3790;48.806;9.140;2023-02-28T23:54:39;-1.80;99.90
7498;DHT22;3790;48.806;9.140;2023-02-28T23:59:40;-1.80;99.90
